Aérodrome :
LOGIN :

S'inscrire | Disclaimer

   EN    FR    IT 

 










Légende :    VFR   VFR Marginal   IFR   IFR Intensif   IFR Très Intensif
Visi : 
Plafond : 
>= 8 km
>= 3000ft
5 à 8 km
1000 à 3000 ft
1500m à 5 km
500 à 1000 ft
800 à 1500m
200 à 500 ft
< 800m
< 200 ft
Symboles :   Orages  Brouillard  Fortes neiges  Fortes précipitations  Vent > 20 kt
SIGMETs :   Divers  Orages  Givrage  Turbulence  Onde Orograph.  Cendres Volcan.







- Altitude de l'aérodrome : 433 ft
- Code IATA : CCF
- Voir les cartes d'approche


LFMK - Carcassonne

DERNIER METAR :
  • 301200Z AUTO 09018KT 9999 NSC 20/08 Q1022 BECMG 09018G28KT

METARs EXPIRÉS :
  • 301130Z AUTO 09017KT 9999 NSC 20/09 Q1023 BECMG 09018G28KT
  • 301100Z AUTO 09017KT 9999 NSC 20/09 Q1023 BECMG 09018G28KT
  • 301030Z AUTO 09017KT 070V130 9999 NSC 19/08 Q1023 BECMG 09018G28KT
  • 301000Z AUTO 09017KT 9999 NSC 19/08 Q1024 BECMG 09018G28KT
  • 300930Z AUTO 08016KT 9999 NSC 18/08 Q1024 BECMG 09018G28KT

TAF TAF LFMK
Valide du 30 à 09h jusqu'au 31 à 09h UTC


300800Z 3009/3109 09010KT CAVOK
BECMG 3009/3012 09018G28KT
BECMG 3018/3022 09015KT BKN008
Pas de NOTAMs connus pour ce terrain.



MET'MAP, la Météo Aéronautique d'un coup d'oeil ! - Copyright ORBIFLY Décembre 2007 - Disclaimer

ORBIFLY MET'MAP TEAM :

Programmation & Développement : Alexandra Zaïnal
Conception & Développement : Baudouin d'Aumeries
Co-Programmation & Développement : Marc-Olivier Méhu
Soutien technique & logistique : Manuel Goepfert

Contact : metmap@orbifly.com




SOURCES & CREDITS :

   NOAA